createdAt,value
2022-10-30T00:02:24.546Z,9.70
2022-10-30T00:04:51.264Z,9.70
2022-10-30T00:07:17.938Z,9.80
2022-10-30T00:09:44.602Z,9.70
2022-10-30T00:12:11.255Z,9.70
2022-10-30T00:14:37.951Z,9.70
2022-10-30T00:17:04.655Z,9.80
2022-10-30T00:19:31.408Z,9.80
2022-10-30T00:24:24.271Z,9.80
2022-10-30T00:26:50.919Z,9.80
2022-10-30T00:29:17.688Z,9.70
2022-10-30T00:31:44.372Z,9.60
2022-10-30T00:34:11.057Z,9.60
2022-10-30T00:36:37.748Z,9.50
2022-10-30T00:39:05.586Z,9.50
2022-10-30T00:41:32.300Z,9.50
2022-10-30T00:43:59.052Z,9.50
2022-10-30T00:46:28.806Z,9.50
2022-10-30T00:49:03.148Z,9.50
2022-10-30T00:51:31.842Z,9.50
2022-10-30T00:54:02.644Z,9.50
2022-10-30T00:56:30.209Z,9.50
2022-10-30T00:59:08.495Z,9.50
2022-10-30T01:01:38.676Z,9.50
2022-10-30T01:04:07.180Z,9.40
2022-10-30T01:06:39.474Z,9.30
2022-10-30T01:09:06.580Z,9.30
2022-10-30T01:11:34.378Z,9.30
2022-10-30T01:14:07.979Z,9.30
2022-10-30T01:16:40.604Z,9.30
2022-10-30T01:19:12.097Z,9.20
2022-10-30T01:21:56.791Z,9.10
2022-10-30T01:24:31.259Z,9.10
2022-10-30T01:27:36.768Z,9.10
2022-10-30T01:30:25.374Z,9.10
2022-10-30T01:33:01.451Z,9.10
2022-10-30T01:35:34.483Z,9.10
2022-10-30T01:38:23.708Z,9.10
2022-10-30T01:40:52.818Z,9.10
2022-10-30T01:43:20.100Z,9.10
2022-10-30T01:46:22.325Z,9.00
2022-10-30T01:49:15.237Z,9.00
2022-10-30T01:52:06.693Z,9.00
2022-10-30T01:54:40.478Z,9.10
2022-10-30T01:57:23.080Z,9.10
2022-10-30T02:00:04.318Z,9.10
2022-10-30T02:02:40.511Z,9.10
2022-10-30T02:05:11.847Z,9.10
2022-10-30T02:07:38.699Z,9.00
2022-10-30T02:10:07.517Z,9.00
2022-10-30T02:12:34.449Z,9.00
2022-10-30T02:15:01.682Z,8.90
2022-10-30T02:17:28.646Z,8.90
2022-10-30T02:19:55.646Z,9.00
2022-10-30T02:22:24.784Z,8.90
2022-10-30T02:24:51.644Z,8.90
2022-10-30T02:27:21.267Z,8.80
2022-10-30T02:29:49.250Z,8.80
2022-10-30T02:32:15.954Z,8.80
2022-10-30T02:34:44.160Z,8.80
2022-10-30T02:37:11.002Z,8.80
2022-10-30T02:39:39.052Z,8.70
2022-10-30T02:42:05.888Z,8.70
2022-10-30T02:44:32.659Z,8.70
2022-10-30T02:46:59.642Z,8.60
2022-10-30T02:49:27.140Z,8.60
2022-10-30T02:51:54.146Z,8.60
2022-10-30T02:54:20.832Z,8.60
2022-10-30T02:56:48.775Z,8.60
2022-10-30T02:59:15.504Z,8.50
2022-10-30T03:01:42.365Z,8.50
2022-10-30T03:04:09.411Z,8.60
2022-10-30T03:06:36.103Z,8.60
2022-10-30T03:09:03.286Z,8.50
2022-10-30T03:11:30.080Z,8.50
2022-10-30T03:13:56.800Z,8.50
2022-10-30T03:16:25.604Z,8.50
2022-10-30T03:18:52.973Z,8.60
2022-10-30T03:21:22.228Z,8.60
2022-10-30T03:23:52.290Z,8.50
2022-10-30T03:26:20.020Z,8.40
2022-10-30T03:28:52.445Z,8.30
2022-10-30T03:31:20.082Z,8.30
2022-10-30T03:33:51.475Z,8.30
2022-10-30T03:36:18.493Z,8.30
2022-10-30T03:38:45.260Z,8.20
2022-10-30T03:41:15.848Z,8.30
2022-10-30T03:43:44.480Z,8.30
2022-10-30T03:46:11.461Z,8.30
2022-10-30T03:48:38.511Z,8.30
2022-10-30T03:51:05.338Z,8.20
2022-10-30T03:53:32.154Z,8.30
2022-10-30T03:56:01.170Z,8.40
2022-10-30T03:58:35.680Z,8.40
2022-10-30T04:01:05.592Z,8.30
2022-10-30T04:03:35.282Z,8.30
2022-10-30T04:06:02.171Z,8.20
2022-10-30T04:08:29.344Z,8.20
2022-10-30T04:10:57.242Z,8.20
2022-10-30T04:13:24.116Z,8.20
2022-10-30T04:15:56.200Z,8.20
2022-10-30T04:18:25.405Z,8.20
2022-10-30T04:20:52.486Z,8.20
2022-10-30T04:23:20.893Z,8.10
2022-10-30T04:25:48.566Z,8.00
2022-10-30T04:28:15.586Z,8.00
2022-10-30T04:30:42.958Z,8.00
2022-10-30T04:33:14.086Z,8.10
2022-10-30T04:35:42.118Z,8.10
2022-10-30T04:38:14.594Z,8.10
2022-10-30T04:40:44.030Z,8.00
2022-10-30T04:43:13.267Z,8.10
2022-10-30T04:45:41.335Z,8.10
2022-10-30T04:48:18.722Z,8.10
2022-10-30T04:50:47.352Z,8.10
2022-10-30T04:53:22.102Z,8.10
2022-10-30T04:55:56.031Z,8.10
2022-10-30T04:58:22.922Z,8.10
2022-10-30T05:01:06.601Z,8.10
2022-10-30T05:03:34.870Z,8.00
2022-10-30T05:06:07.782Z,8.10
2022-10-30T05:08:34.600Z,8.00
2022-10-30T05:11:08.746Z,8.00
2022-10-30T05:13:35.739Z,8.00
2022-10-30T05:16:02.864Z,7.90
2022-10-30T05:18:29.590Z,7.90
2022-10-30T05:20:56.287Z,7.90
2022-10-30T05:23:23.163Z,8.00
2022-10-30T05:25:50.087Z,8.00
2022-10-30T05:28:17.058Z,8.00
2022-10-30T05:30:52.858Z,8.00
2022-10-30T05:33:42.809Z,8.00
2022-10-30T05:36:09.876Z,8.00
2022-10-30T05:38:36.583Z,8.00
2022-10-30T05:41:06.460Z,8.00
2022-10-30T05:43:33.244Z,8.00
2022-10-30T05:46:00.094Z,7.90
2022-10-30T05:48:27.581Z,7.80
2022-10-30T05:50:58.337Z,7.90
2022-10-30T05:53:28.230Z,7.90
2022-10-30T05:55:58.000Z,7.90
2022-10-30T05:58:26.016Z,7.80
2022-10-30T06:00:55.093Z,7.80
2022-10-30T06:03:35.631Z,7.70
2022-10-30T06:06:02.456Z,7.70
2022-10-30T06:08:29.551Z,7.70
2022-10-30T06:10:58.959Z,7.70
2022-10-30T06:13:32.219Z,7.70
2022-10-30T06:16:02.879Z,7.70
2022-10-30T06:18:46.422Z,7.70
2022-10-30T06:21:13.643Z,7.70
2022-10-30T06:23:51.685Z,7.70
2022-10-30T06:26:30.426Z,7.70
2022-10-30T06:29:02.341Z,7.70
2022-10-30T06:31:30.505Z,7.80
2022-10-30T06:33:59.292Z,7.90
2022-10-30T06:36:26.174Z,7.90
2022-10-30T06:38:53.671Z,7.80
2022-10-30T06:41:26.157Z,7.80
2022-10-30T06:44:05.517Z,7.80
2022-10-30T06:46:34.404Z,7.80
2022-10-30T06:49:01.399Z,7.90
2022-10-30T06:51:29.069Z,8.00
2022-10-30T06:53:57.930Z,8.20
2022-10-30T06:56:51.617Z,8.20
2022-10-30T06:59:18.518Z,8.30
2022-10-30T07:01:55.583Z,8.30
2022-10-30T07:04:24.940Z,8.50
2022-10-30T07:06:51.704Z,8.70
2022-10-30T07:09:20.896Z,8.80
2022-10-30T07:11:52.144Z,8.90
2022-10-30T07:14:28.319Z,8.90
2022-10-30T07:17:05.325Z,9.00
2022-10-30T07:19:32.387Z,9.10
2022-10-30T07:22:00.629Z,9.30
2022-10-30T07:24:28.285Z,9.40
2022-10-30T07:27:15.233Z,9.60
2022-10-30T07:29:47.612Z,10.00
2022-10-30T07:32:24.006Z,10.20
2022-10-30T07:35:12.363Z,10.40
2022-10-30T07:38:11.165Z,10.50
2022-10-30T07:40:52.400Z,10.70
2022-10-30T07:43:38.524Z,10.90
2022-10-30T07:46:23.820Z,11.10
2022-10-30T07:49:21.715Z,11.10
2022-10-30T07:51:49.928Z,11.30
2022-10-30T07:54:17.343Z,11.40
2022-10-30T07:56:44.085Z,11.50
2022-10-30T08:02:39.712Z,11.50
2022-10-30T08:05:28.834Z,11.70
2022-10-30T08:08:08.691Z,11.90
2022-10-30T08:10:36.665Z,12.20
2022-10-30T08:13:03.789Z,12.40
2022-10-30T08:15:31.107Z,12.60
2022-10-30T08:17:58.014Z,12.80
2022-10-30T08:20:25.651Z,13.00
2022-10-30T08:22:58.078Z,13.20
2022-10-30T08:25:28.644Z,13.40
2022-10-30T08:28:05.002Z,13.60
2022-10-30T08:30:36.405Z,13.80
2022-10-30T08:33:07.516Z,13.90
2022-10-30T08:35:59.189Z,14.10
2022-10-30T08:38:27.951Z,14.20
2022-10-30T08:41:06.757Z,14.30
2022-10-30T08:43:38.830Z,14.50
2022-10-30T08:46:05.724Z,14.60
2022-10-30T08:48:32.446Z,14.90
2022-10-30T08:51:01.153Z,15.00
2022-10-30T08:53:33.256Z,15.10
2022-10-30T08:56:01.284Z,15.20
2022-10-30T08:58:51.654Z,15.10
2022-10-30T09:01:19.375Z,15.10
2022-10-30T09:04:04.855Z,15.10
2022-10-30T09:06:46.779Z,15.10
2022-10-30T09:09:36.588Z,15.20
2022-10-30T09:12:04.590Z,15.30
2022-10-30T09:14:38.422Z,15.40
2022-10-30T09:17:07.568Z,15.50
2022-10-30T09:19:36.328Z,15.80
2022-10-30T09:22:03.111Z,16.00
2022-10-30T09:24:31.133Z,16.30
2022-10-30T09:27:16.520Z,16.50
2022-10-30T09:29:48.206Z,16.70
2022-10-30T09:32:21.675Z,16.80
2022-10-30T09:34:54.553Z,16.80
2022-10-30T09:37:24.606Z,16.80
2022-10-30T09:39:55.007Z,16.90
2022-10-30T09:42:45.844Z,17.00
2022-10-30T09:45:52.174Z,17.10
2022-10-30T09:48:49.712Z,17.20
2022-10-30T09:51:39.358Z,17.20
2022-10-30T09:54:20.597Z,17.30
2022-10-30T09:57:30.048Z,17.40
2022-10-30T10:00:16.215Z,17.50
2022-10-30T10:03:13.540Z,17.70
2022-10-30T10:06:03.247Z,17.80
2022-10-30T10:08:57.298Z,18.00
2022-10-30T10:11:57.086Z,18.10
2022-10-30T10:14:29.136Z,18.30
2022-10-30T10:16:58.580Z,18.40
2022-10-30T10:19:57.332Z,18.50
2022-10-30T10:22:30.897Z,18.70
2022-10-30T10:24:57.666Z,18.80
2022-10-30T10:27:56.455Z,18.90
2022-10-30T10:30:24.361Z,19.00
2022-10-30T10:33:28.570Z,19.10
2022-10-30T10:35:58.400Z,19.30
2022-10-30T10:38:38.226Z,19.40
2022-10-30T10:41:20.432Z,19.50
2022-10-30T10:44:05.271Z,19.60
2022-10-30T10:46:49.905Z,19.80
2022-10-30T10:49:25.587Z,19.80
2022-10-30T10:52:03.659Z,19.80
2022-10-30T10:54:36.486Z,20.00
2022-10-30T10:57:06.345Z,20.10
2022-10-30T10:59:48.504Z,20.20
2022-10-30T11:02:21.495Z,20.20
2022-10-30T11:04:51.815Z,20.30
2022-10-30T11:07:29.871Z,20.40
2022-10-30T11:09:57.490Z,20.50
2022-10-30T11:12:36.269Z,20.60
2022-10-30T11:15:18.099Z,20.60
2022-10-30T11:18:11.253Z,20.60
2022-10-30T11:21:09.265Z,20.70
2022-10-30T11:23:40.526Z,20.80
2022-10-30T11:26:32.378Z,20.80
2022-10-30T11:29:06.689Z,20.90
2022-10-30T11:31:40.440Z,20.90
2022-10-30T11:34:19.335Z,20.80
2022-10-30T11:36:50.077Z,20.80
2022-10-30T11:39:35.404Z,20.80
2022-10-30T11:42:15.510Z,20.70
2022-10-30T11:44:50.466Z,20.70
2022-10-30T11:47:21.751Z,20.80
2022-10-30T11:49:53.179Z,20.90
2022-10-30T11:52:22.514Z,21.00
2022-10-30T11:54:52.405Z,21.00
2022-10-30T11:57:21.636Z,21.20
2022-10-30T11:59:51.700Z,21.30
2022-10-30T12:02:27.248Z,21.40
2022-10-30T12:04:55.140Z,21.50
2022-10-30T12:07:30.520Z,21.70
2022-10-30T12:10:01.730Z,21.70
2022-10-30T12:12:32.974Z,21.60
2022-10-30T12:15:30.482Z,21.60
2022-10-30T12:18:06.048Z,21.70
2022-10-30T12:20:36.696Z,21.90
2022-10-30T12:23:36.373Z,22.00
2022-10-30T12:26:10.595Z,22.30
2022-10-30T12:28:38.867Z,22.40
2022-10-30T12:31:20.920Z,22.60
2022-10-30T12:34:03.067Z,22.80
2022-10-30T12:36:37.042Z,22.80
2022-10-30T12:39:30.175Z,22.80
2022-10-30T12:41:59.851Z,22.90
2022-10-30T12:44:37.644Z,22.90
2022-10-30T12:47:28.288Z,22.80
2022-10-30T12:50:02.134Z,22.80
2022-10-30T12:52:37.186Z,22.80
2022-10-30T12:55:14.307Z,22.80
2022-10-30T12:57:48.036Z,22.80
2022-10-30T13:00:17.232Z,22.80
2022-10-30T13:02:57.263Z,22.80
2022-10-30T13:05:37.048Z,22.80
2022-10-30T13:08:30.084Z,22.70
2022-10-30T13:11:22.988Z,22.60
2022-10-30T13:13:52.767Z,22.50
2022-10-30T13:16:28.956Z,22.40
2022-10-30T13:18:59.551Z,22.30
2022-10-30T13:22:13.811Z,22.20
2022-10-30T13:25:14.201Z,22.20
2022-10-30T13:27:54.507Z,22.30
2022-10-30T13:30:23.254Z,22.60
2022-10-30T13:33:23.012Z,23.00
2022-10-30T13:36:16.180Z,23.40
2022-10-30T13:38:42.818Z,23.70
2022-10-30T13:41:34.090Z,24.20
2022-10-30T13:44:18.904Z,24.20
2022-10-30T13:47:02.367Z,24.20
2022-10-30T13:49:50.662Z,24.00
2022-10-30T13:52:20.790Z,24.10
2022-10-30T13:54:59.247Z,25.40
2022-10-30T13:57:34.260Z,27.60
2022-10-30T14:00:19.112Z,29.50
2022-10-30T14:03:01.198Z,30.60
2022-10-30T14:05:39.070Z,31.00
2022-10-30T14:08:22.322Z,31.10
2022-10-30T14:10:57.658Z,30.50
2022-10-30T14:13:43.892Z,29.80
2022-10-30T14:16:30.504Z,28.90
2022-10-30T14:19:04.864Z,28.00
2022-10-30T14:21:51.794Z,27.90
2022-10-30T14:24:44.327Z,28.60
2022-10-30T14:27:21.807Z,29.90
2022-10-30T14:29:50.437Z,31.10
2022-10-30T14:32:19.799Z,32.00
2022-10-30T14:34:58.150Z,32.20
2022-10-30T14:37:27.577Z,32.00
2022-10-30T14:39:55.633Z,31.70
2022-10-30T14:42:31.243Z,31.40
2022-10-30T14:45:17.051Z,31.10
2022-10-30T14:48:11.118Z,30.90
2022-10-30T14:50:56.780Z,31.40
2022-10-30T14:53:44.910Z,32.20
2022-10-30T14:56:26.637Z,32.50
2022-10-30T14:59:10.122Z,31.80
2022-10-30T15:01:48.688Z,30.60
2022-10-30T15:04:24.281Z,29.50
2022-10-30T15:07:16.609Z,28.90
2022-10-30T15:10:07.259Z,28.50
2022-10-30T15:12:41.745Z,28.20
2022-10-30T15:15:16.087Z,27.60
2022-10-30T15:17:46.672Z,27.00
2022-10-30T15:20:33.964Z,25.90
2022-10-30T15:23:37.779Z,25.00
2022-10-30T15:26:09.872Z,24.10
2022-10-30T15:28:38.708Z,23.10
2022-10-30T15:31:07.851Z,22.40
2022-10-30T15:33:38.195Z,21.80
2022-10-30T15:36:05.663Z,21.40
2022-10-30T15:38:32.370Z,20.90
2022-10-30T15:41:01.768Z,20.60
2022-10-30T15:43:35.175Z,20.30
2022-10-30T15:46:08.265Z,19.80
2022-10-30T15:48:36.876Z,19.60
2022-10-30T15:51:05.698Z,19.30
2022-10-30T15:54:05.130Z,19.20
2022-10-30T15:59:56.317Z,18.80
2022-10-30T16:02:26.668Z,18.50
2022-10-30T16:04:53.948Z,18.30
2022-10-30T16:07:23.272Z,18.20
2022-10-30T16:09:58.539Z,17.90
2022-10-30T16:12:27.355Z,17.70
2022-10-30T16:14:58.724Z,17.50
2022-10-30T16:17:26.727Z,17.40
2022-10-30T16:19:58.938Z,17.30
2022-10-30T16:22:34.264Z,17.10
2022-10-30T16:25:01.220Z,16.80
2022-10-30T16:27:27.891Z,16.70
2022-10-30T16:29:58.904Z,16.70
2022-10-30T16:32:31.795Z,16.50
2022-10-30T16:35:01.425Z,16.30
2022-10-30T16:37:34.430Z,16.10
2022-10-30T16:40:14.654Z,15.90
2022-10-30T16:42:44.928Z,15.80
2022-10-30T16:45:31.592Z,15.60
2022-10-30T16:48:08.455Z,15.50
2022-10-30T16:50:37.689Z,15.30
2022-10-30T16:53:15.078Z,15.30
2022-10-30T16:55:41.912Z,15.20
2022-10-30T16:58:13.484Z,15.00
2022-10-30T17:00:47.695Z,14.90
2022-10-30T17:03:14.497Z,14.80
2022-10-30T17:05:43.570Z,14.60
2022-10-30T17:08:16.259Z,14.50
2022-10-30T17:10:54.125Z,14.50
2022-10-30T17:13:38.082Z,14.40
2022-10-30T17:16:27.714Z,14.40
2022-10-30T17:18:57.338Z,14.30
2022-10-30T17:21:46.577Z,14.20
2022-10-30T17:24:20.509Z,14.00
2022-10-30T17:26:58.795Z,14.10
2022-10-30T17:29:37.731Z,14.10
2022-10-30T17:32:06.643Z,14.00
2022-10-30T17:34:39.351Z,14.00
2022-10-30T17:37:06.057Z,13.80
2022-10-30T17:39:32.808Z,13.70
2022-10-30T17:41:59.589Z,13.60
2022-10-30T17:44:27.309Z,13.60
2022-10-30T17:46:54.563Z,13.50
2022-10-30T17:49:32.116Z,13.40
2022-10-30T17:51:59.490Z,13.40
2022-10-30T17:54:26.375Z,13.30
2022-10-30T17:56:53.091Z,13.30
2022-10-30T17:59:19.819Z,13.20
2022-10-30T18:01:48.867Z,13.10
2022-10-30T18:04:20.651Z,13.00
2022-10-30T18:06:48.413Z,12.90
2022-10-30T18:09:15.171Z,12.90
2022-10-30T18:11:41.869Z,12.80
2022-10-30T18:14:10.957Z,12.80
2022-10-30T18:16:38.317Z,12.80
2022-10-30T18:19:10.161Z,12.70
2022-10-30T18:21:36.863Z,12.70
2022-10-30T18:24:12.598Z,12.60
2022-10-30T18:26:40.666Z,12.40
2022-10-30T18:29:08.216Z,12.30
2022-10-30T18:31:34.910Z,12.30
2022-10-30T18:34:01.679Z,12.30
2022-10-30T18:36:28.450Z,12.40
2022-10-30T18:38:56.101Z,12.40
2022-10-30T18:41:33.804Z,12.40
2022-10-30T18:44:00.810Z,12.10
2022-10-30T18:46:29.456Z,12.00
2022-10-30T18:48:56.201Z,12.00
2022-10-30T18:51:25.454Z,12.00
2022-10-30T18:53:52.637Z,12.00
2022-10-30T18:56:19.415Z,12.00
2022-10-30T18:58:46.177Z,11.90
2022-10-30T19:01:14.881Z,11.90
2022-10-30T19:03:42.965Z,11.80
2022-10-30T19:06:17.778Z,11.80
2022-10-30T19:08:44.963Z,11.70
2022-10-30T19:11:20.195Z,11.60
2022-10-30T19:13:51.232Z,11.50
2022-10-30T19:16:19.507Z,11.50
2022-10-30T19:18:47.430Z,11.50
2022-10-30T19:21:20.653Z,11.50
2022-10-30T19:23:48.198Z,11.40
2022-10-30T19:26:16.079Z,11.40
2022-10-30T19:28:43.697Z,11.20
2022-10-30T19:31:14.950Z,11.20
2022-10-30T19:33:42.102Z,11.20
2022-10-30T19:36:28.320Z,11.20
2022-10-30T19:38:55.875Z,11.10
2022-10-30T19:41:24.527Z,11.10
2022-10-30T19:43:51.728Z,11.10
2022-10-30T19:46:18.575Z,11.10
2022-10-30T19:48:57.128Z,11.10
2022-10-30T19:51:24.927Z,11.10
2022-10-30T19:53:53.465Z,11.00
2022-10-30T19:56:20.583Z,11.00
2022-10-30T19:58:47.355Z,11.00
2022-10-30T20:01:14.223Z,10.80
2022-10-30T20:03:41.015Z,10.80
2022-10-30T20:06:10.476Z,10.80
2022-10-30T20:08:37.241Z,10.80
2022-10-30T20:11:03.952Z,10.90
2022-10-30T20:13:32.875Z,10.80
2022-10-30T20:16:00.702Z,10.80
2022-10-30T20:18:30.533Z,10.80
2022-10-30T20:20:59.629Z,10.80
2022-10-30T20:23:27.331Z,10.70
2022-10-30T20:25:59.877Z,10.70
2022-10-30T20:28:36.816Z,10.60
2022-10-30T20:31:04.598Z,10.60
2022-10-30T20:33:31.531Z,10.60
2022-10-30T20:35:58.293Z,10.60
2022-10-30T20:38:30.486Z,10.60
2022-10-30T20:40:58.813Z,10.60
2022-10-30T20:43:35.196Z,10.50
2022-10-30T20:46:03.214Z,10.50
2022-10-30T20:48:30.194Z,10.40
2022-10-30T20:50:58.110Z,10.30
2022-10-30T20:53:25.074Z,10.30
2022-10-30T20:55:51.920Z,10.20
2022-10-30T20:58:18.899Z,10.30
2022-10-30T21:00:45.931Z,10.20
2022-10-30T21:03:15.533Z,10.10
2022-10-30T21:05:45.444Z,10.10
2022-10-30T21:08:15.588Z,10.10
2022-10-30T21:10:42.524Z,10.10
2022-10-30T21:13:11.234Z,10.20
2022-10-30T21:15:42.935Z,10.10
2022-10-30T21:18:12.534Z,10.00
2022-10-30T21:20:40.903Z,9.90
2022-10-30T21:23:07.730Z,9.80
2022-10-30T21:25:34.659Z,9.80
2022-10-30T21:28:01.784Z,9.70
2022-10-30T21:30:28.813Z,9.70
2022-10-30T21:32:55.570Z,9.80
2022-10-30T21:35:22.644Z,9.80
2022-10-30T21:37:49.438Z,9.70
2022-10-30T21:40:16.288Z,9.70
2022-10-30T21:42:42.956Z,9.60
2022-10-30T21:45:10.217Z,9.70
2022-10-30T21:47:36.886Z,9.50
2022-10-30T21:50:07.794Z,9.40
2022-10-30T21:52:37.842Z,9.40
2022-10-30T21:55:04.980Z,9.40
2022-10-30T21:57:31.855Z,9.50
2022-10-30T22:00:01.570Z,9.40
2022-10-30T22:02:35.368Z,9.40
2022-10-30T22:05:02.219Z,9.40
2022-10-30T22:07:28.916Z,9.40
2022-10-30T22:09:55.801Z,9.50
2022-10-30T22:12:22.550Z,9.50
2022-10-30T22:14:49.316Z,9.50
2022-10-30T22:17:16.187Z,9.50
2022-10-30T22:19:42.910Z,9.50
2022-10-30T22:22:11.006Z,9.50
2022-10-30T22:24:37.701Z,9.50
2022-10-30T22:27:04.393Z,9.50
2022-10-30T22:29:31.300Z,9.60
2022-10-30T22:31:58.050Z,9.60
2022-10-30T22:34:24.823Z,9.50
2022-10-30T22:36:51.478Z,9.50
2022-10-30T22:39:18.190Z,9.40
2022-10-30T22:41:44.878Z,9.40
2022-10-30T22:44:13.678Z,9.40
2022-10-30T22:46:40.794Z,9.40
2022-10-30T22:49:07.847Z,9.30
2022-10-30T22:51:36.779Z,9.30
2022-10-30T22:54:05.683Z,9.30
2022-10-30T22:56:34.528Z,9.30
2022-10-30T22:59:06.931Z,9.30
2022-10-30T23:01:35.601Z,9.20
2022-10-30T23:04:03.760Z,9.30
2022-10-30T23:06:32.159Z,9.40
2022-10-30T23:09:00.844Z,9.20
2022-10-30T23:11:28.520Z,9.10
2022-10-30T23:13:55.862Z,9.10
2022-10-30T23:16:25.559Z,9.10
2022-10-30T23:18:55.017Z,9.10
2022-10-30T23:21:24.026Z,9.00
2022-10-30T23:23:51.395Z,8.90
2022-10-30T23:26:21.332Z,8.90
2022-10-30T23:28:50.000Z,8.90
2022-10-30T23:31:30.093Z,8.80
2022-10-30T23:33:59.694Z,8.80
2022-10-30T23:36:26.430Z,8.80
2022-10-30T23:38:54.528Z,8.90
2022-10-30T23:41:24.828Z,8.90
2022-10-30T23:44:00.540Z,8.70
2022-10-30T23:46:27.736Z,8.50
2022-10-30T23:48:54.842Z,8.60
2022-10-30T23:51:21.584Z,8.60
2022-10-30T23:53:48.914Z,8.60
2022-10-30T23:56:15.916Z,8.50
2022-10-30T23:58:47.245Z,8.50
